sensor_id;sensor_type;location;lat;lon;timestamp;P1;durP1;ratioP1;P2;durP2;ratioP2
23406;SDS011;11876;53.438;18.942;2023-06-10T00:03:54;11.85;;;5.50;;
23406;SDS011;11876;53.438;18.942;2023-06-10T00:08:57;6.90;;;4.88;;
23406;SDS011;11876;53.438;18.942;2023-06-10T00:14:00;9.63;;;5.20;;
23406;SDS011;11876;53.438;18.942;2023-06-10T00:19:03;10.60;;;5.20;;
23406;SDS011;11876;53.438;18.942;2023-06-10T00:24:07;8.00;;;5.07;;
23406;SDS011;11876;53.438;18.942;2023-06-10T00:29:14;8.68;;;5.28;;
23406;SDS011;11876;53.438;18.942;2023-06-10T00:34:17;8.07;;;5.53;;
23406;SDS011;11876;53.438;18.942;2023-06-10T00:39:19;8.55;;;4.95;;
23406;SDS011;11876;53.438;18.942;2023-06-10T00:44:22;8.63;;;4.80;;
23406;SDS011;11876;53.438;18.942;2023-06-10T00:49:24;9.75;;;5.35;;
23406;SDS011;11876;53.438;18.942;2023-06-10T00:54:27;7.40;;;4.93;;
23406;SDS011;11876;53.438;18.942;2023-06-10T00:59:29;7.82;;;4.93;;
23406;SDS011;11876;53.438;18.942;2023-06-10T01:04:33;9.15;;;5.18;;
23406;SDS011;11876;53.438;18.942;2023-06-10T01:09:38;8.48;;;4.63;;
23406;SDS011;11876;53.438;18.942;2023-06-10T01:14:44;8.00;;;4.75;;
23406;SDS011;11876;53.438;18.942;2023-06-10T01:19:56;11.43;;;5.53;;
23406;SDS011;11876;53.438;18.942;2023-06-10T01:25:00;7.63;;;5.57;;
23406;SDS011;11876;53.438;18.942;2023-06-10T01:30:11;11.30;;;5.20;;
23406;SDS011;11876;53.438;18.942;2023-06-10T01:35:17;9.88;;;4.93;;
23406;SDS011;11876;53.438;18.942;2023-06-10T01:40:21;9.05;;;5.32;;
23406;SDS011;11876;53.438;18.942;2023-06-10T01:45:25;12.77;;;5.15;;
23406;SDS011;11876;53.438;18.942;2023-06-10T01:50:28;6.35;;;4.63;;
23406;SDS011;11876;53.438;18.942;2023-06-10T01:55:31;9.80;;;5.25;;
23406;SDS011;11876;53.438;18.942;2023-06-10T02:00:33;8.10;;;5.43;;
23406;SDS011;11876;53.438;18.942;2023-06-10T02:05:36;10.63;;;5.50;;
23406;SDS011;11876;53.438;18.942;2023-06-10T02:10:39;7.22;;;5.00;;
23406;SDS011;11876;53.438;18.942;2023-06-10T02:15:42;8.30;;;4.72;;
23406;SDS011;11876;53.438;18.942;2023-06-10T02:20:45;17.98;;;5.68;;
23406;SDS011;11876;53.438;18.942;2023-06-10T02:25:47;5.97;;;4.78;;
23406;SDS011;11876;53.438;18.942;2023-06-10T02:30:50;8.10;;;5.28;;
23406;SDS011;11876;53.438;18.942;2023-06-10T02:35:55;9.50;;;4.75;;
23406;SDS011;11876;53.438;18.942;2023-06-10T02:40:59;9.95;;;4.85;;
23406;SDS011;11876;53.438;18.942;2023-06-10T02:46:02;15.05;;;5.43;;
23406;SDS011;11876;53.438;18.942;2023-06-10T02:51:05;9.75;;;4.55;;
23406;SDS011;11876;53.438;18.942;2023-06-10T03:01:18;9.85;;;4.97;;
23406;SDS011;11876;53.438;18.942;2023-06-10T03:06:29;7.80;;;4.88;;
23406;SDS011;11876;53.438;18.942;2023-06-10T03:11:53;17.95;;;4.90;;
23406;SDS011;11876;53.438;18.942;2023-06-10T03:16:56;7.47;;;4.50;;
23406;SDS011;11876;53.438;18.942;2023-06-10T03:22:09;9.57;;;4.72;;
23406;SDS011;11876;53.438;18.942;2023-06-10T03:27:17;7.55;;;4.97;;
23406;SDS011;11876;53.438;18.942;2023-06-10T03:32:24;8.25;;;4.05;;
23406;SDS011;11876;53.438;18.942;2023-06-10T03:37:27;7.55;;;3.95;;
23406;SDS011;11876;53.438;18.942;2023-06-10T03:42:29;8.50;;;4.40;;
23406;SDS011;11876;53.438;18.942;2023-06-10T03:47:35;16.08;;;4.50;;
23406;SDS011;11876;53.438;18.942;2023-06-10T03:52:42;7.97;;;3.42;;
23406;SDS011;11876;53.438;18.942;2023-06-10T03:57:46;9.00;;;3.83;;
23406;SDS011;11876;53.438;18.942;2023-06-10T04:02:48;7.10;;;3.53;;
23406;SDS011;11876;53.438;18.942;2023-06-10T04:08:03;5.03;;;3.60;;
23406;SDS011;11876;53.438;18.942;2023-06-10T04:13:06;6.35;;;3.75;;
23406;SDS011;11876;53.438;18.942;2023-06-10T04:18:14;5.80;;;3.58;;
23406;SDS011;11876;53.438;18.942;2023-06-10T04:23:19;8.15;;;3.05;;
23406;SDS011;11876;53.438;18.942;2023-06-10T04:28:22;5.90;;;3.20;;
23406;SDS011;11876;53.438;18.942;2023-06-10T04:33:24;6.47;;;3.58;;
23406;SDS011;11876;53.438;18.942;2023-06-10T04:38:28;5.50;;;3.05;;
23406;SDS011;11876;53.438;18.942;2023-06-10T04:43:33;8.95;;;3.92;;
23406;SDS011;11876;53.438;18.942;2023-06-10T04:48:36;6.20;;;2.63;;
23406;SDS011;11876;53.438;18.942;2023-06-10T04:53:38;11.02;;;3.08;;
23406;SDS011;11876;53.438;18.942;2023-06-10T04:58:41;10.48;;;3.22;;
23406;SDS011;11876;53.438;18.942;2023-06-10T05:03:44;12.52;;;3.08;;
23406;SDS011;11876;53.438;18.942;2023-06-10T05:08:46;4.72;;;3.70;;
23406;SDS011;11876;53.438;18.942;2023-06-10T05:13:49;16.05;;;4.28;;
23406;SDS011;11876;53.438;18.942;2023-06-10T05:18:51;12.48;;;4.00;;
23406;SDS011;11876;53.438;18.942;2023-06-10T05:23:54;15.52;;;3.60;;
23406;SDS011;11876;53.438;18.942;2023-06-10T05:28:57;7.75;;;3.67;;
23406;SDS011;11876;53.438;18.942;2023-06-10T05:34:00;7.45;;;2.88;;
23406;SDS011;11876;53.438;18.942;2023-06-10T05:39:03;8.02;;;2.80;;
23406;SDS011;11876;53.438;18.942;2023-06-10T05:44:07;12.15;;;3.20;;
23406;SDS011;11876;53.438;18.942;2023-06-10T05:49:13;4.75;;;2.92;;
23406;SDS011;11876;53.438;18.942;2023-06-10T05:54:16;5.53;;;3.17;;
23406;SDS011;11876;53.438;18.942;2023-06-10T05:59:19;14.85;;;3.75;;
23406;SDS011;11876;53.438;18.942;2023-06-10T06:04:21;14.25;;;3.85;;
23406;SDS011;11876;53.438;18.942;2023-06-10T06:09:24;11.43;;;3.78;;
23406;SDS011;11876;53.438;18.942;2023-06-10T06:14:30;7.53;;;3.00;;
23406;SDS011;11876;53.438;18.942;2023-06-10T06:19:33;9.57;;;3.40;;
23406;SDS011;11876;53.438;18.942;2023-06-10T06:24:36;6.82;;;3.28;;
23406;SDS011;11876;53.438;18.942;2023-06-10T06:29:39;5.30;;;2.78;;
23406;SDS011;11876;53.438;18.942;2023-06-10T06:34:42;5.13;;;3.05;;
23406;SDS011;11876;53.438;18.942;2023-06-10T06:39:44;7.50;;;3.17;;
23406;SDS011;11876;53.438;18.942;2023-06-10T06:44:47;6.40;;;3.10;;
23406;SDS011;11876;53.438;18.942;2023-06-10T06:49:49;12.00;;;3.35;;
23406;SDS011;11876;53.438;18.942;2023-06-10T06:54:52;4.90;;;2.65;;
23406;SDS011;11876;53.438;18.942;2023-06-10T06:59:54;7.35;;;3.20;;
23406;SDS011;11876;53.438;18.942;2023-06-10T07:04:57;12.20;;;4.15;;
23406;SDS011;11876;53.438;18.942;2023-06-10T07:10:00;4.32;;;3.10;;
23406;SDS011;11876;53.438;18.942;2023-06-10T07:15:03;5.95;;;2.78;;
23406;SDS011;11876;53.438;18.942;2023-06-10T07:20:06;13.27;;;3.85;;
23406;SDS011;11876;53.438;18.942;2023-06-10T07:25:09;9.35;;;3.40;;
23406;SDS011;11876;53.438;18.942;2023-06-10T07:30:12;8.65;;;3.47;;
23406;SDS011;11876;53.438;18.942;2023-06-10T07:35:14;7.72;;;3.10;;
23406;SDS011;11876;53.438;18.942;2023-06-10T07:40:17;6.32;;;3.00;;
23406;SDS011;11876;53.438;18.942;2023-06-10T07:45:20;4.55;;;2.72;;
23406;SDS011;11876;53.438;18.942;2023-06-10T07:50:22;8.27;;;2.67;;
23406;SDS011;11876;53.438;18.942;2023-06-10T07:55:25;8.80;;;3.17;;
23406;SDS011;11876;53.438;18.942;2023-06-10T08:00:27;7.78;;;3.78;;
23406;SDS011;11876;53.438;18.942;2023-06-10T08:05:30;15.52;;;3.28;;
23406;SDS011;11876;53.438;18.942;2023-06-10T08:10:32;6.30;;;2.60;;
23406;SDS011;11876;53.438;18.942;2023-06-10T08:15:35;8.40;;;2.92;;
23406;SDS011;11876;53.438;18.942;2023-06-10T08:20:37;9.20;;;3.42;;
23406;SDS011;11876;53.438;18.942;2023-06-10T08:25:40;6.18;;;2.80;;
23406;SDS011;11876;53.438;18.942;2023-06-10T08:30:43;4.18;;;3.40;;
23406;SDS011;11876;53.438;18.942;2023-06-10T08:35:45;6.55;;;3.00;;
23406;SDS011;11876;53.438;18.942;2023-06-10T08:40:48;7.03;;;2.67;;
23406;SDS011;11876;53.438;18.942;2023-06-10T08:45:51;11.38;;;3.08;;
23406;SDS011;11876;53.438;18.942;2023-06-10T08:50:59;13.07;;;2.67;;
23406;SDS011;11876;53.438;18.942;2023-06-10T08:56:02;9.10;;;2.63;;
23406;SDS011;11876;53.438;18.942;2023-06-10T09:01:07;8.68;;;3.20;;
23406;SDS011;11876;53.438;18.942;2023-06-10T09:06:10;10.75;;;3.50;;
23406;SDS011;11876;53.438;18.942;2023-06-10T09:11:13;12.32;;;3.20;;
23406;SDS011;11876;53.438;18.942;2023-06-10T09:16:15;11.02;;;2.67;;
23406;SDS011;11876;53.438;18.942;2023-06-10T09:21:18;13.35;;;3.38;;
23406;SDS011;11876;53.438;18.942;2023-06-10T09:26:21;8.77;;;3.10;;
23406;SDS011;11876;53.438;18.942;2023-06-10T09:31:35;5.25;;;2.50;;
23406;SDS011;11876;53.438;18.942;2023-06-10T09:36:39;39.92;;;4.65;;
23406;SDS011;11876;53.438;18.942;2023-06-10T09:41:42;11.18;;;2.90;;
23406;SDS011;11876;53.438;18.942;2023-06-10T09:46:46;5.60;;;2.53;;
23406;SDS011;11876;53.438;18.942;2023-06-10T09:51:56;6.32;;;2.70;;
23406;SDS011;11876;53.438;18.942;2023-06-10T09:56:58;7.57;;;3.05;;
23406;SDS011;11876;53.438;18.942;2023-06-10T10:02:01;6.13;;;2.92;;
23406;SDS011;11876;53.438;18.942;2023-06-10T10:12:13;8.88;;;2.90;;
23406;SDS011;11876;53.438;18.942;2023-06-10T10:17:16;8.63;;;2.60;;
23406;SDS011;11876;53.438;18.942;2023-06-10T10:22:25;4.30;;;2.70;;
23406;SDS011;11876;53.438;18.942;2023-06-10T10:27:40;8.73;;;2.83;;
23406;SDS011;11876;53.438;18.942;2023-06-10T10:32:58;4.45;;;2.42;;
23406;SDS011;11876;53.438;18.942;2023-06-10T10:38:24;3.60;;;2.47;;
23406;SDS011;11876;53.438;18.942;2023-06-10T10:43:27;10.07;;;2.58;;
23406;SDS011;11876;53.438;18.942;2023-06-10T10:48:35;10.27;;;2.85;;
23406;SDS011;11876;53.438;18.942;2023-06-10T10:53:39;17.85;;;3.78;;
23406;SDS011;11876;53.438;18.942;2023-06-10T10:58:42;4.60;;;2.22;;
23406;SDS011;11876;53.438;18.942;2023-06-10T11:03:45;4.47;;;2.47;;
23406;SDS011;11876;53.438;18.942;2023-06-10T11:08:49;2.63;;;2.40;;
23406;SDS011;11876;53.438;18.942;2023-06-10T11:19:03;13.18;;;2.65;;
23406;SDS011;11876;53.438;18.942;2023-06-10T11:24:12;4.18;;;2.00;;
23406;SDS011;11876;53.438;18.942;2023-06-10T11:29:18;7.78;;;2.30;;
23406;SDS011;11876;53.438;18.942;2023-06-10T11:34:22;9.13;;;2.30;;
23406;SDS011;11876;53.438;18.942;2023-06-10T11:39:26;4.55;;;2.33;;
23406;SDS011;11876;53.438;18.942;2023-06-10T11:44:29;6.80;;;2.33;;
23406;SDS011;11876;53.438;18.942;2023-06-10T11:49:31;7.18;;;2.30;;
23406;SDS011;11876;53.438;18.942;2023-06-10T11:54:34;7.80;;;2.45;;
23406;SDS011;11876;53.438;18.942;2023-06-10T11:59:36;11.38;;;2.30;;
23406;SDS011;11876;53.438;18.942;2023-06-10T12:04:40;4.18;;;2.30;;
23406;SDS011;11876;53.438;18.942;2023-06-10T12:09:43;7.00;;;2.70;;
23406;SDS011;11876;53.438;18.942;2023-06-10T12:14:58;19.85;;;3.67;;
23406;SDS011;11876;53.438;18.942;2023-06-10T12:20:07;12.25;;;3.10;;
23406;SDS011;11876;53.438;18.942;2023-06-10T12:25:11;3.30;;;2.00;;
23406;SDS011;11876;53.438;18.942;2023-06-10T12:30:17;6.22;;;2.75;;
23406;SDS011;11876;53.438;18.942;2023-06-10T12:35:29;7.07;;;2.35;;
23406;SDS011;11876;53.438;18.942;2023-06-10T12:40:33;4.60;;;1.80;;
23406;SDS011;11876;53.438;18.942;2023-06-10T12:45:38;7.80;;;1.92;;
23406;SDS011;11876;53.438;18.942;2023-06-10T12:50:42;5.07;;;2.03;;
23406;SDS011;11876;53.438;18.942;2023-06-10T12:55:45;13.57;;;2.38;;
23406;SDS011;11876;53.438;18.942;2023-06-10T13:00:47;5.18;;;2.60;;
23406;SDS011;11876;53.438;18.942;2023-06-10T13:05:50;4.18;;;2.20;;
23406;SDS011;11876;53.438;18.942;2023-06-10T13:10:53;13.80;;;2.53;;
23406;SDS011;11876;53.438;18.942;2023-06-10T13:15:56;11.35;;;2.20;;
23406;SDS011;11876;53.438;18.942;2023-06-10T13:20:58;4.47;;;1.95;;
23406;SDS011;11876;53.438;18.942;2023-06-10T13:26:01;12.07;;;2.30;;
23406;SDS011;11876;53.438;18.942;2023-06-10T13:31:04;2.75;;;1.30;;
23406;SDS011;11876;53.438;18.942;2023-06-10T13:36:07;2.42;;;1.73;;
23406;SDS011;11876;53.438;18.942;2023-06-10T13:41:11;9.60;;;2.13;;
23406;SDS011;11876;53.438;18.942;2023-06-10T13:46:14;11.35;;;2.58;;
23406;SDS011;11876;53.438;18.942;2023-06-10T13:51:17;52.20;;;5.68;;
23406;SDS011;11876;53.438;18.942;2023-06-10T13:56:19;11.30;;;2.05;;
23406;SDS011;11876;53.438;18.942;2023-06-10T14:01:22;4.45;;;1.70;;
23406;SDS011;11876;53.438;18.942;2023-06-10T14:06:24;18.08;;;3.00;;
23406;SDS011;11876;53.438;18.942;2023-06-10T14:11:27;4.72;;;1.92;;
23406;SDS011;11876;53.438;18.942;2023-06-10T14:16:33;5.13;;;1.50;;
23406;SDS011;11876;53.438;18.942;2023-06-10T14:21:35;6.32;;;1.83;;
23406;SDS011;11876;53.438;18.942;2023-06-10T14:26:38;4.65;;;2.25;;
23406;SDS011;11876;53.438;18.942;2023-06-10T14:31:41;2.67;;;1.83;;
23406;SDS011;11876;53.438;18.942;2023-06-10T14:36:43;11.57;;;2.38;;
23406;SDS011;11876;53.438;18.942;2023-06-10T14:41:46;6.95;;;2.20;;
23406;SDS011;11876;53.438;18.942;2023-06-10T14:46:48;4.72;;;1.80;;
23406;SDS011;11876;53.438;18.942;2023-06-10T14:51:51;6.28;;;2.15;;
23406;SDS011;11876;53.438;18.942;2023-06-10T14:56:53;9.10;;;3.03;;
23406;SDS011;11876;53.438;18.942;2023-06-10T15:01:56;3.65;;;1.83;;
23406;SDS011;11876;53.438;18.942;2023-06-10T15:06:59;11.27;;;4.07;;
23406;SDS011;11876;53.438;18.942;2023-06-10T15:12:01;9.90;;;2.22;;
23406;SDS011;11876;53.438;18.942;2023-06-10T15:17:05;6.15;;;1.88;;
23406;SDS011;11876;53.438;18.942;2023-06-10T15:22:07;9.65;;;3.40;;
23406;SDS011;11876;53.438;18.942;2023-06-10T15:27:10;11.45;;;2.42;;
23406;SDS011;11876;53.438;18.942;2023-06-10T15:32:12;14.55;;;2.33;;
23406;SDS011;11876;53.438;18.942;2023-06-10T15:37:19;4.35;;;2.00;;
23406;SDS011;11876;53.438;18.942;2023-06-10T15:42:25;7.93;;;3.03;;
23406;SDS011;11876;53.438;18.942;2023-06-10T15:47:28;12.40;;;2.95;;
23406;SDS011;11876;53.438;18.942;2023-06-10T15:52:31;6.78;;;2.95;;
23406;SDS011;11876;53.438;18.942;2023-06-10T15:57:33;14.88;;;2.95;;
23406;SDS011;11876;53.438;18.942;2023-06-10T16:02:35;4.13;;;2.30;;
23406;SDS011;11876;53.438;18.942;2023-06-10T16:07:38;8.13;;;2.35;;
23406;SDS011;11876;53.438;18.942;2023-06-10T16:12:42;4.40;;;2.05;;
23406;SDS011;11876;53.438;18.942;2023-06-10T16:17:44;7.22;;;2.22;;
23406;SDS011;11876;53.438;18.942;2023-06-10T16:22:48;6.78;;;3.20;;
23406;SDS011;11876;53.438;18.942;2023-06-10T16:27:50;9.27;;;2.40;;
23406;SDS011;11876;53.438;18.942;2023-06-10T16:32:53;12.02;;;2.35;;
23406;SDS011;11876;53.438;18.942;2023-06-10T16:37:55;3.70;;;2.40;;
23406;SDS011;11876;53.438;18.942;2023-06-10T16:43:01;5.18;;;2.53;;
23406;SDS011;11876;53.438;18.942;2023-06-10T16:48:03;5.60;;;2.10;;
23406;SDS011;11876;53.438;18.942;2023-06-10T16:53:06;7.82;;;3.17;;
23406;SDS011;11876;53.438;18.942;2023-06-10T16:58:09;6.28;;;2.10;;
23406;SDS011;11876;53.438;18.942;2023-06-10T17:03:12;11.20;;;3.70;;
23406;SDS011;11876;53.438;18.942;2023-06-10T17:08:14;6.70;;;2.97;;
23406;SDS011;11876;53.438;18.942;2023-06-10T17:13:16;5.65;;;2.70;;
23406;SDS011;11876;53.438;18.942;2023-06-10T17:18:19;7.05;;;2.50;;
23406;SDS011;11876;53.438;18.942;2023-06-10T17:23:22;3.25;;;1.88;;
23406;SDS011;11876;53.438;18.942;2023-06-10T17:28:24;4.05;;;1.83;;
23406;SDS011;11876;53.438;18.942;2023-06-10T17:33:27;4.60;;;2.05;;
23406;SDS011;11876;53.438;18.942;2023-06-10T17:38:29;8.57;;;2.20;;
23406;SDS011;11876;53.438;18.942;2023-06-10T17:43:32;9.13;;;2.50;;
23406;SDS011;11876;53.438;18.942;2023-06-10T17:48:34;9.75;;;3.47;;
23406;SDS011;11876;53.438;18.942;2023-06-10T17:53:37;4.90;;;2.20;;
23406;SDS011;11876;53.438;18.942;2023-06-10T17:58:39;17.35;;;3.80;;
23406;SDS011;11876;53.438;18.942;2023-06-10T18:03:43;8.18;;;3.70;;
23406;SDS011;11876;53.438;18.942;2023-06-10T18:08:45;14.45;;;3.42;;
23406;SDS011;11876;53.438;18.942;2023-06-10T18:13:48;11.30;;;3.47;;
23406;SDS011;11876;53.438;18.942;2023-06-10T18:18:51;26.27;;;4.55;;
23406;SDS011;11876;53.438;18.942;2023-06-10T18:23:54;9.45;;;2.55;;
23406;SDS011;11876;53.438;18.942;2023-06-10T18:28:56;14.30;;;4.00;;
23406;SDS011;11876;53.438;18.942;2023-06-10T18:33:59;20.85;;;5.60;;
23406;SDS011;11876;53.438;18.942;2023-06-10T18:39:03;13.13;;;5.53;;
23406;SDS011;11876;53.438;18.942;2023-06-10T18:44:05;14.77;;;3.83;;
23406;SDS011;11876;53.438;18.942;2023-06-10T18:49:07;9.60;;;3.80;;
23406;SDS011;11876;53.438;18.942;2023-06-10T18:54:10;6.50;;;2.80;;
23406;SDS011;11876;53.438;18.942;2023-06-10T18:59:12;4.28;;;2.55;;
23406;SDS011;11876;53.438;18.942;2023-06-10T19:04:15;8.80;;;2.75;;
23406;SDS011;11876;53.438;18.942;2023-06-10T19:09:18;5.82;;;2.88;;
23406;SDS011;11876;53.438;18.942;2023-06-10T19:14:20;10.30;;;3.65;;
23406;SDS011;11876;53.438;18.942;2023-06-10T19:19:23;7.10;;;2.20;;
23406;SDS011;11876;53.438;18.942;2023-06-10T19:24:25;8.32;;;2.38;;
23406;SDS011;11876;53.438;18.942;2023-06-10T19:29:28;8.68;;;2.22;;
23406;SDS011;11876;53.438;18.942;2023-06-10T19:34:30;11.57;;;2.55;;
23406;SDS011;11876;53.438;18.942;2023-06-10T19:39:32;3.28;;;1.92;;
23406;SDS011;11876;53.438;18.942;2023-06-10T19:44:35;5.15;;;2.20;;
23406;SDS011;11876;53.438;18.942;2023-06-10T19:49:37;4.85;;;2.30;;
23406;SDS011;11876;53.438;18.942;2023-06-10T19:54:40;2.97;;;2.00;;
23406;SDS011;11876;53.438;18.942;2023-06-10T19:59:42;4.47;;;2.00;;
23406;SDS011;11876;53.438;18.942;2023-06-10T20:04:45;4.38;;;1.90;;
23406;SDS011;11876;53.438;18.942;2023-06-10T20:09:47;6.45;;;2.33;;
23406;SDS011;11876;53.438;18.942;2023-06-10T20:14:49;6.55;;;2.45;;
23406;SDS011;11876;53.438;18.942;2023-06-10T20:19:52;9.68;;;2.58;;
23406;SDS011;11876;53.438;18.942;2023-06-10T20:24:54;4.72;;;1.75;;
23406;SDS011;11876;53.438;18.942;2023-06-10T20:29:57;12.63;;;1.90;;
23406;SDS011;11876;53.438;18.942;2023-06-10T20:34:59;3.35;;;1.70;;
23406;SDS011;11876;53.438;18.942;2023-06-10T20:40:02;4.20;;;1.85;;
23406;SDS011;11876;53.438;18.942;2023-06-10T20:45:06;9.63;;;2.03;;
23406;SDS011;11876;53.438;18.942;2023-06-10T20:50:09;6.13;;;1.90;;
23406;SDS011;11876;53.438;18.942;2023-06-10T20:55:12;6.63;;;2.47;;
23406;SDS011;11876;53.438;18.942;2023-06-10T21:00:14;3.45;;;1.63;;
23406;SDS011;11876;53.438;18.942;2023-06-10T21:05:17;3.08;;;1.90;;
23406;SDS011;11876;53.438;18.942;2023-06-10T21:10:20;5.90;;;1.95;;
23406;SDS011;11876;53.438;18.942;2023-06-10T21:15:22;9.48;;;1.70;;
23406;SDS011;11876;53.438;18.942;2023-06-10T21:20:25;5.72;;;1.70;;
23406;SDS011;11876;53.438;18.942;2023-06-10T21:25:27;3.60;;;1.80;;
23406;SDS011;11876;53.438;18.942;2023-06-10T21:30:30;7.57;;;1.70;;
23406;SDS011;11876;53.438;18.942;2023-06-10T21:35:32;3.60;;;1.75;;
23406;SDS011;11876;53.438;18.942;2023-06-10T21:40:35;4.22;;;1.60;;
23406;SDS011;11876;53.438;18.942;2023-06-10T21:45:38;5.00;;;1.92;;
23406;SDS011;11876;53.438;18.942;2023-06-10T21:50:40;8.02;;;1.55;;
23406;SDS011;11876;53.438;18.942;2023-06-10T21:55:43;6.53;;;1.52;;
23406;SDS011;11876;53.438;18.942;2023-06-10T22:00:45;6.43;;;1.77;;
23406;SDS011;11876;53.438;18.942;2023-06-10T22:05:48;7.60;;;2.13;;
23406;SDS011;11876;53.438;18.942;2023-06-10T22:10:51;3.45;;;1.98;;
23406;SDS011;11876;53.438;18.942;2023-06-10T22:15:53;5.85;;;1.80;;
23406;SDS011;11876;53.438;18.942;2023-06-10T22:20:56;10.18;;;1.88;;
23406;SDS011;11876;53.438;18.942;2023-06-10T22:25:58;6.20;;;1.73;;
23406;SDS011;11876;53.438;18.942;2023-06-10T22:31:00;5.60;;;1.65;;
23406;SDS011;11876;53.438;18.942;2023-06-10T22:36:03;5.28;;;1.63;;
23406;SDS011;11876;53.438;18.942;2023-06-10T22:41:05;4.43;;;1.60;;
23406;SDS011;11876;53.438;18.942;2023-06-10T22:46:08;7.18;;;1.75;;
23406;SDS011;11876;53.438;18.942;2023-06-10T22:51:11;4.57;;;1.58;;
23406;SDS011;11876;53.438;18.942;2023-06-10T22:56:14;6.10;;;1.95;;
23406;SDS011;11876;53.438;18.942;2023-06-10T23:01:16;5.38;;;1.90;;
23406;SDS011;11876;53.438;18.942;2023-06-10T23:06:19;6.78;;;1.85;;
23406;SDS011;11876;53.438;18.942;2023-06-10T23:11:22;5.28;;;1.45;;
23406;SDS011;11876;53.438;18.942;2023-06-10T23:16:24;2.80;;;1.30;;
23406;SDS011;11876;53.438;18.942;2023-06-10T23:21:27;6.13;;;2.10;;
23406;SDS011;11876;53.438;18.942;2023-06-10T23:26:35;6.43;;;1.30;;
23406;SDS011;11876;53.438;18.942;2023-06-10T23:31:37;3.30;;;1.45;;
23406;SDS011;11876;53.438;18.942;2023-06-10T23:36:39;4.53;;;1.98;;
23406;SDS011;11876;53.438;18.942;2023-06-10T23:41:42;5.55;;;1.50;;
23406;SDS011;11876;53.438;18.942;2023-06-10T23:46:45;5.47;;;1.67;;
23406;SDS011;11876;53.438;18.942;2023-06-10T23:51:48;2.20;;;1.40;;
23406;SDS011;11876;53.438;18.942;2023-06-10T23:56:50;6.57;;;1.85;;
